sensor_id;sensor_type;location;lat;lon;timestamp;P1;durP1;ratioP1;P2;durP2;ratioP2
65871;SDS011;52653;50.080;21.992;2023-04-25T00:02:08;10.90;;;8.10;;
65871;SDS011;52653;50.080;21.992;2023-04-25T00:04:43;10.00;;;7.80;;
65871;SDS011;52653;50.080;21.992;2023-04-25T00:07:18;10.30;;;7.00;;
65871;SDS011;52653;50.080;21.992;2023-04-25T00:09:51;8.70;;;6.80;;
65871;SDS011;52653;50.080;21.992;2023-04-25T00:12:44;8.90;;;7.30;;
65871;SDS011;52653;50.080;21.992;2023-04-25T00:15:17;8.90;;;6.60;;
65871;SDS011;52653;50.080;21.992;2023-04-25T00:18:00;8.40;;;6.40;;
65871;SDS011;52653;50.080;21.992;2023-04-25T00:20:36;8.70;;;7.00;;
65871;SDS011;52653;50.080;21.992;2023-04-25T00:23:12;10.70;;;6.80;;
65871;SDS011;52653;50.080;21.992;2023-04-25T00:25:47;8.60;;;7.40;;
65871;SDS011;52653;50.080;21.992;2023-04-25T00:28:20;9.60;;;7.10;;
65871;SDS011;52653;50.080;21.992;2023-04-25T00:30:52;8.60;;;7.00;;
65871;SDS011;52653;50.080;21.992;2023-04-25T00:33:25;8.40;;;7.00;;
65871;SDS011;52653;50.080;21.992;2023-04-25T00:35:58;8.50;;;7.20;;
65871;SDS011;52653;50.080;21.992;2023-04-25T00:38:31;9.10;;;7.50;;
65871;SDS011;52653;50.080;21.992;2023-04-25T00:41:04;8.80;;;7.20;;
65871;SDS011;52653;50.080;21.992;2023-04-25T00:43:38;9.80;;;7.00;;
65871;SDS011;52653;50.080;21.992;2023-04-25T00:46:12;8.30;;;7.20;;
65871;SDS011;52653;50.080;21.992;2023-04-25T00:48:45;11.10;;;8.30;;
65871;SDS011;52653;50.080;21.992;2023-04-25T00:51:20;8.90;;;7.60;;
65871;SDS011;52653;50.080;21.992;2023-04-25T00:53:54;9.20;;;7.40;;
65871;SDS011;52653;50.080;21.992;2023-04-25T00:56:27;8.80;;;7.40;;
65871;SDS011;52653;50.080;21.992;2023-04-25T00:59:01;9.00;;;7.60;;
65871;SDS011;52653;50.080;21.992;2023-04-25T01:01:44;10.00;;;7.90;;
65871;SDS011;52653;50.080;21.992;2023-04-25T01:04:17;9.00;;;7.60;;
65871;SDS011;52653;50.080;21.992;2023-04-25T01:06:51;9.30;;;7.60;;
65871;SDS011;52653;50.080;21.992;2023-04-25T01:09:25;9.40;;;7.90;;
65871;SDS011;52653;50.080;21.992;2023-04-25T01:12:03;10.50;;;7.70;;
65871;SDS011;52653;50.080;21.992;2023-04-25T01:14:36;9.80;;;7.40;;
65871;SDS011;52653;50.080;21.992;2023-04-25T01:17:09;9.60;;;7.50;;
65871;SDS011;52653;50.080;21.992;2023-04-25T01:19:42;9.00;;;7.50;;
65871;SDS011;52653;50.080;21.992;2023-04-25T01:22:17;9.80;;;7.70;;
65871;SDS011;52653;50.080;21.992;2023-04-25T01:24:50;9.10;;;7.20;;
65871;SDS011;52653;50.080;21.992;2023-04-25T01:27:44;9.40;;;7.90;;
65871;SDS011;52653;50.080;21.992;2023-04-25T01:30:27;9.40;;;7.60;;
65871;SDS011;52653;50.080;21.992;2023-04-25T01:33:04;10.30;;;8.20;;
65871;SDS011;52653;50.080;21.992;2023-04-25T01:35:58;8.40;;;7.40;;
65871;SDS011;52653;50.080;21.992;2023-04-25T01:38:32;9.00;;;7.70;;
65871;SDS011;52653;50.080;21.992;2023-04-25T01:41:06;9.30;;;7.80;;
65871;SDS011;52653;50.080;21.992;2023-04-25T01:43:39;9.20;;;7.40;;
65871;SDS011;52653;50.080;21.992;2023-04-25T01:46:12;9.80;;;8.20;;
65871;SDS011;52653;50.080;21.992;2023-04-25T01:48:58;9.30;;;7.80;;
65871;SDS011;52653;50.080;21.992;2023-04-25T01:51:31;8.70;;;7.10;;
65871;SDS011;52653;50.080;21.992;2023-04-25T01:54:05;10.80;;;8.60;;
65871;SDS011;52653;50.080;21.992;2023-04-25T01:56:39;9.10;;;7.70;;
65871;SDS011;52653;50.080;21.992;2023-04-25T01:59:14;10.10;;;8.10;;
65871;SDS011;52653;50.080;21.992;2023-04-25T02:02:08;9.40;;;7.80;;
65871;SDS011;52653;50.080;21.992;2023-04-25T02:04:40;10.50;;;8.00;;
65871;SDS011;52653;50.080;21.992;2023-04-25T02:07:14;9.70;;;8.40;;
65871;SDS011;52653;50.080;21.992;2023-04-25T02:09:54;10.80;;;8.30;;
65871;SDS011;52653;50.080;21.992;2023-04-25T02:12:28;9.50;;;8.30;;
65871;SDS011;52653;50.080;21.992;2023-04-25T02:15:39;9.20;;;7.50;;
65871;SDS011;52653;50.080;21.992;2023-04-25T02:18:16;8.80;;;7.20;;
65871;SDS011;52653;50.080;21.992;2023-04-25T02:21:00;9.40;;;8.10;;
65871;SDS011;52653;50.080;21.992;2023-04-25T02:23:54;9.90;;;8.30;;
65871;SDS011;52653;50.080;21.992;2023-04-25T02:26:30;9.40;;;8.10;;
65871;SDS011;52653;50.080;21.992;2023-04-25T02:29:06;9.90;;;8.40;;
65871;SDS011;52653;50.080;21.992;2023-04-25T02:31:39;10.60;;;8.50;;
65871;SDS011;52653;50.080;21.992;2023-04-25T02:34:12;10.50;;;8.10;;
65871;SDS011;52653;50.080;21.992;2023-04-25T02:36:50;10.70;;;8.60;;
65871;SDS011;52653;50.080;21.992;2023-04-25T02:39:43;11.20;;;8.70;;
65871;SDS011;52653;50.080;21.992;2023-04-25T02:42:15;11.70;;;9.40;;
65871;SDS011;52653;50.080;21.992;2023-04-25T02:44:51;12.10;;;9.50;;
65871;SDS011;52653;50.080;21.992;2023-04-25T02:47:24;12.20;;;10.10;;
65871;SDS011;52653;50.080;21.992;2023-04-25T02:49:57;12.10;;;10.00;;
65871;SDS011;52653;50.080;21.992;2023-04-25T02:52:31;14.20;;;10.70;;
65871;SDS011;52653;50.080;21.992;2023-04-25T02:55:14;12.70;;;10.90;;
65871;SDS011;52653;50.080;21.992;2023-04-25T02:57:47;14.00;;;11.50;;
65871;SDS011;52653;50.080;21.992;2023-04-25T03:00:39;14.40;;;11.00;;
65871;SDS011;52653;50.080;21.992;2023-04-25T03:03:12;13.10;;;10.80;;
65871;SDS011;52653;50.080;21.992;2023-04-25T03:05:50;13.20;;;10.90;;
65871;SDS011;52653;50.080;21.992;2023-04-25T03:08:27;13.20;;;11.10;;
65871;SDS011;52653;50.080;21.992;2023-04-25T03:11:04;12.90;;;11.40;;
65871;SDS011;52653;50.080;21.992;2023-04-25T03:13:40;14.30;;;11.50;;
65871;SDS011;52653;50.080;21.992;2023-04-25T03:16:12;16.10;;;11.70;;
65871;SDS011;52653;50.080;21.992;2023-04-25T03:18:48;14.30;;;11.40;;
65871;SDS011;52653;50.080;21.992;2023-04-25T03:21:22;13.70;;;11.80;;
65871;SDS011;52653;50.080;21.992;2023-04-25T03:23:55;13.70;;;10.50;;
65871;SDS011;52653;50.080;21.992;2023-04-25T03:26:28;14.30;;;11.00;;
65871;SDS011;52653;50.080;21.992;2023-04-25T03:29:01;13.90;;;10.80;;
65871;SDS011;52653;50.080;21.992;2023-04-25T03:31:35;12.70;;;10.40;;
65871;SDS011;52653;50.080;21.992;2023-04-25T03:34:11;12.40;;;10.40;;
65871;SDS011;52653;50.080;21.992;2023-04-25T03:36:46;13.30;;;10.60;;
65871;SDS011;52653;50.080;21.992;2023-04-25T03:39:18;12.80;;;10.10;;
65871;SDS011;52653;50.080;21.992;2023-04-25T03:41:51;11.60;;;9.90;;
65871;SDS011;52653;50.080;21.992;2023-04-25T03:44:24;12.40;;;10.50;;
65871;SDS011;52653;50.080;21.992;2023-04-25T03:47:02;13.40;;;11.20;;
65871;SDS011;52653;50.080;21.992;2023-04-25T03:49:35;12.80;;;10.50;;
65871;SDS011;52653;50.080;21.992;2023-04-25T03:52:08;12.60;;;10.10;;
65871;SDS011;52653;50.080;21.992;2023-04-25T03:54:42;13.20;;;10.40;;
65871;SDS011;52653;50.080;21.992;2023-04-25T03:57:22;12.00;;;9.70;;
65871;SDS011;52653;50.080;21.992;2023-04-25T03:59:55;12.30;;;10.10;;
65871;SDS011;52653;50.080;21.992;2023-04-25T04:02:30;12.00;;;10.00;;
65871;SDS011;52653;50.080;21.992;2023-04-25T04:05:04;12.70;;;10.20;;
65871;SDS011;52653;50.080;21.992;2023-04-25T04:07:50;14.00;;;10.30;;
65871;SDS011;52653;50.080;21.992;2023-04-25T04:10:24;12.90;;;10.10;;
65871;SDS011;52653;50.080;21.992;2023-04-25T04:12:57;14.00;;;10.50;;
65871;SDS011;52653;50.080;21.992;2023-04-25T04:15:31;13.20;;;10.50;;
65871;SDS011;52653;50.080;21.992;2023-04-25T04:18:18;14.90;;;10.40;;
65871;SDS011;52653;50.080;21.992;2023-04-25T04:20:51;13.20;;;10.60;;
65871;SDS011;52653;50.080;21.992;2023-04-25T04:23:24;13.60;;;9.90;;
65871;SDS011;52653;50.080;21.992;2023-04-25T04:25:58;12.50;;;10.30;;
65871;SDS011;52653;50.080;21.992;2023-04-25T04:29:08;13.70;;;11.00;;
65871;SDS011;52653;50.080;21.992;2023-04-25T04:31:48;14.50;;;10.60;;
65871;SDS011;52653;50.080;21.992;2023-04-25T04:34:23;14.00;;;10.50;;
65871;SDS011;52653;50.080;21.992;2023-04-25T04:36:56;14.70;;;10.90;;
65871;SDS011;52653;50.080;21.992;2023-04-25T04:39:29;15.00;;;10.90;;
65871;SDS011;52653;50.080;21.992;2023-04-25T04:42:31;13.00;;;10.50;;
65871;SDS011;52653;50.080;21.992;2023-04-25T04:45:17;13.40;;;10.50;;
65871;SDS011;52653;50.080;21.992;2023-04-25T04:48:10;13.60;;;10.30;;
65871;SDS011;52653;50.080;21.992;2023-04-25T04:50:57;12.80;;;10.50;;
65871;SDS011;52653;50.080;21.992;2023-04-25T04:53:49;12.00;;;9.80;;
65871;SDS011;52653;50.080;21.992;2023-04-25T04:56:52;12.80;;;10.20;;
65871;SDS011;52653;50.080;21.992;2023-04-25T04:59:44;12.30;;;10.40;;
65871;SDS011;52653;50.080;21.992;2023-04-25T05:02:39;13.40;;;10.20;;
65871;SDS011;52653;50.080;21.992;2023-04-25T05:05:31;13.20;;;9.90;;
65871;SDS011;52653;50.080;21.992;2023-04-25T05:08:27;13.00;;;10.60;;
65871;SDS011;52653;50.080;21.992;2023-04-25T05:11:32;13.40;;;10.30;;
65871;SDS011;52653;50.080;21.992;2023-04-25T05:14:27;12.20;;;10.10;;
65871;SDS011;52653;50.080;21.992;2023-04-25T05:17:13;11.90;;;10.20;;
65871;SDS011;52653;50.080;21.992;2023-04-25T05:20:25;13.20;;;10.40;;
65871;SDS011;52653;50.080;21.992;2023-04-25T05:23:16;12.80;;;9.90;;
65871;SDS011;52653;50.080;21.992;2023-04-25T05:26:14;13.40;;;10.70;;
65871;SDS011;52653;50.080;21.992;2023-04-25T05:29:25;13.30;;;10.80;;
65871;SDS011;52653;50.080;21.992;2023-04-25T05:32:33;14.80;;;12.00;;
65871;SDS011;52653;50.080;21.992;2023-04-25T05:35:18;15.80;;;12.90;;
65871;SDS011;52653;50.080;21.992;2023-04-25T05:37:54;13.90;;;12.00;;
65871;SDS011;52653;50.080;21.992;2023-04-25T05:40:47;15.40;;;12.10;;
65871;SDS011;52653;50.080;21.992;2023-04-25T05:43:43;16.20;;;12.50;;
65871;SDS011;52653;50.080;21.992;2023-04-25T05:46:42;18.20;;;15.40;;
65871;SDS011;52653;50.080;21.992;2023-04-25T05:49:32;17.80;;;14.40;;
65871;SDS011;52653;50.080;21.992;2023-04-25T05:52:15;18.50;;;14.10;;
65871;SDS011;52653;50.080;21.992;2023-04-25T05:55:02;19.20;;;16.00;;
65871;SDS011;52653;50.080;21.992;2023-04-25T05:57:38;20.40;;;16.50;;
65871;SDS011;52653;50.080;21.992;2023-04-25T06:00:26;19.90;;;16.90;;
65871;SDS011;52653;50.080;21.992;2023-04-25T06:02:59;19.60;;;16.40;;
65871;SDS011;52653;50.080;21.992;2023-04-25T06:05:43;20.00;;;17.60;;
65871;SDS011;52653;50.080;21.992;2023-04-25T06:08:19;21.70;;;16.50;;
65871;SDS011;52653;50.080;21.992;2023-04-25T06:10:51;20.70;;;17.60;;
65871;SDS011;52653;50.080;21.992;2023-04-25T06:13:36;20.00;;;17.40;;
65871;SDS011;52653;50.080;21.992;2023-04-25T06:16:23;20.90;;;17.10;;
65871;SDS011;52653;50.080;21.992;2023-04-25T06:18:56;22.10;;;18.90;;
65871;SDS011;52653;50.080;21.992;2023-04-25T06:21:39;22.60;;;17.90;;
65871;SDS011;52653;50.080;21.992;2023-04-25T06:24:23;24.80;;;19.50;;
65871;SDS011;52653;50.080;21.992;2023-04-25T06:27:16;25.10;;;20.90;;
65871;SDS011;52653;50.080;21.992;2023-04-25T06:30:11;28.30;;;21.50;;
65871;SDS011;52653;50.080;21.992;2023-04-25T06:33:05;24.70;;;21.90;;
65871;SDS011;52653;50.080;21.992;2023-04-25T06:36:00;27.30;;;22.60;;
65871;SDS011;52653;50.080;21.992;2023-04-25T06:38:43;29.80;;;24.10;;
65871;SDS011;52653;50.080;21.992;2023-04-25T06:41:24;28.00;;;23.80;;
65871;SDS011;52653;50.080;21.992;2023-04-25T06:44:16;30.40;;;25.20;;
65871;SDS011;52653;50.080;21.992;2023-04-25T06:47:10;26.30;;;22.30;;
65871;SDS011;52653;50.080;21.992;2023-04-25T06:49:50;29.00;;;22.20;;
65871;SDS011;52653;50.080;21.992;2023-04-25T06:52:26;24.90;;;21.70;;
65871;SDS011;52653;50.080;21.992;2023-04-25T06:55:09;23.20;;;20.20;;
65871;SDS011;52653;50.080;21.992;2023-04-25T06:58:03;21.20;;;18.90;;
65871;SDS011;52653;50.080;21.992;2023-04-25T07:01:01;21.50;;;18.20;;
65871;SDS011;52653;50.080;21.992;2023-04-25T07:03:34;21.60;;;18.40;;
65871;SDS011;52653;50.080;21.992;2023-04-25T07:06:15;20.40;;;16.70;;
65871;SDS011;52653;50.080;21.992;2023-04-25T07:09:07;21.80;;;18.60;;
65871;SDS011;52653;50.080;21.992;2023-04-25T07:11:40;19.40;;;15.40;;
65871;SDS011;52653;50.080;21.992;2023-04-25T07:14:35;15.00;;;13.20;;
65871;SDS011;52653;50.080;21.992;2023-04-25T07:17:08;11.20;;;9.50;;
65871;SDS011;52653;50.080;21.992;2023-04-25T07:19:43;11.80;;;7.80;;
65871;SDS011;52653;50.080;21.992;2023-04-25T07:22:16;8.70;;;7.20;;
65871;SDS011;52653;50.080;21.992;2023-04-25T07:24:49;7.80;;;6.00;;
65871;SDS011;52653;50.080;21.992;2023-04-25T07:27:25;7.60;;;5.70;;
65871;SDS011;52653;50.080;21.992;2023-04-25T07:30:18;6.60;;;5.00;;
65871;SDS011;52653;50.080;21.992;2023-04-25T07:32:57;7.40;;;5.20;;
65871;SDS011;52653;50.080;21.992;2023-04-25T07:35:43;7.20;;;5.20;;
65871;SDS011;52653;50.080;21.992;2023-04-25T07:38:37;8.20;;;5.50;;
65871;SDS011;52653;50.080;21.992;2023-04-25T07:41:30;7.50;;;4.90;;
65871;SDS011;52653;50.080;21.992;2023-04-25T07:44:25;5.20;;;4.10;;
65871;SDS011;52653;50.080;21.992;2023-04-25T07:47:19;7.30;;;4.30;;
65871;SDS011;52653;50.080;21.992;2023-04-25T07:50:13;5.30;;;3.80;;
65871;SDS011;52653;50.080;21.992;2023-04-25T07:53:06;5.80;;;3.90;;
65871;SDS011;52653;50.080;21.992;2023-04-25T07:55:57;5.90;;;3.90;;
65871;SDS011;52653;50.080;21.992;2023-04-25T07:58:44;5.40;;;3.40;;
65871;SDS011;52653;50.080;21.992;2023-04-25T08:01:38;4.80;;;2.80;;
65871;SDS011;52653;50.080;21.992;2023-04-25T08:07:04;5.40;;;3.60;;
65871;SDS011;52653;50.080;21.992;2023-04-25T08:09:57;4.80;;;3.30;;
65871;SDS011;52653;50.080;21.992;2023-04-25T08:12:50;4.70;;;2.60;;
65871;SDS011;52653;50.080;21.992;2023-04-25T08:15:44;4.80;;;3.00;;
65871;SDS011;52653;50.080;21.992;2023-04-25T08:18:37;5.70;;;3.60;;
65871;SDS011;52653;50.080;21.992;2023-04-25T08:21:14;4.80;;;3.40;;
65871;SDS011;52653;50.080;21.992;2023-04-25T08:23:55;5.50;;;3.40;;
65871;SDS011;52653;50.080;21.992;2023-04-25T08:26:48;6.10;;;3.40;;
65871;SDS011;52653;50.080;21.992;2023-04-25T08:29:43;5.30;;;3.70;;
65871;SDS011;52653;50.080;21.992;2023-04-25T08:32:27;5.60;;;3.70;;
65871;SDS011;52653;50.080;21.992;2023-04-25T08:35:11;5.80;;;3.80;;
65871;SDS011;52653;50.080;21.992;2023-04-25T08:37:49;5.30;;;4.00;;
65871;SDS011;52653;50.080;21.992;2023-04-25T08:40:26;6.50;;;4.30;;
65871;SDS011;52653;50.080;21.992;2023-04-25T08:43:22;5.70;;;4.20;;
65871;SDS011;52653;50.080;21.992;2023-04-25T08:46:04;5.90;;;4.50;;
65871;SDS011;52653;50.080;21.992;2023-04-25T08:48:58;6.10;;;4.40;;
65871;SDS011;52653;50.080;21.992;2023-04-25T08:51:52;5.20;;;3.80;;
65871;SDS011;52653;50.080;21.992;2023-04-25T08:54:30;6.50;;;4.40;;
65871;SDS011;52653;50.080;21.992;2023-04-25T08:57:06;5.10;;;3.70;;
65871;SDS011;52653;50.080;21.992;2023-04-25T08:59:40;5.40;;;4.00;;
65871;SDS011;52653;50.080;21.992;2023-04-25T09:02:15;6.00;;;4.70;;
65871;SDS011;52653;50.080;21.992;2023-04-25T09:04:51;6.50;;;5.10;;
65871;SDS011;52653;50.080;21.992;2023-04-25T09:07:31;6.50;;;5.50;;
65871;SDS011;52653;50.080;21.992;2023-04-25T09:10:04;6.90;;;5.60;;
65871;SDS011;52653;50.080;21.992;2023-04-25T09:12:40;7.00;;;5.70;;
65871;SDS011;52653;50.080;21.992;2023-04-25T09:15:15;7.80;;;6.10;;
65871;SDS011;52653;50.080;21.992;2023-04-25T09:17:50;9.10;;;6.20;;
65871;SDS011;52653;50.080;21.992;2023-04-25T09:20:33;8.00;;;6.40;;
65871;SDS011;52653;50.080;21.992;2023-04-25T09:23:21;8.70;;;6.30;;
65871;SDS011;52653;50.080;21.992;2023-04-25T09:25:53;8.50;;;6.60;;
65871;SDS011;52653;50.080;21.992;2023-04-25T09:28:28;9.20;;;7.10;;
65871;SDS011;52653;50.080;21.992;2023-04-25T09:36:23;9.50;;;7.40;;
65871;SDS011;52653;50.080;21.992;2023-04-25T09:39:21;8.40;;;6.80;;
65871;SDS011;52653;50.080;21.992;2023-04-25T09:42:09;11.80;;;7.40;;
65871;SDS011;52653;50.080;21.992;2023-04-25T09:44:53;9.00;;;7.30;;
65871;SDS011;52653;50.080;21.992;2023-04-25T09:47:26;9.00;;;6.60;;
65871;SDS011;52653;50.080;21.992;2023-04-25T09:50:01;8.80;;;7.20;;
65871;SDS011;52653;50.080;21.992;2023-04-25T09:53:04;11.00;;;7.70;;
65871;SDS011;52653;50.080;21.992;2023-04-25T09:55:58;9.80;;;7.70;;
65871;SDS011;52653;50.080;21.992;2023-04-25T09:58:37;8.20;;;6.70;;
65871;SDS011;52653;50.080;21.992;2023-04-25T10:01:11;8.20;;;6.30;;
65871;SDS011;52653;50.080;21.992;2023-04-25T10:03:51;8.50;;;6.60;;
65871;SDS011;52653;50.080;21.992;2023-04-25T10:06:45;9.70;;;7.50;;
65871;SDS011;52653;50.080;21.992;2023-04-25T10:09:20;8.50;;;6.60;;
65871;SDS011;52653;50.080;21.992;2023-04-25T10:11:58;7.00;;;5.40;;
65871;SDS011;52653;50.080;21.992;2023-04-25T10:14:31;8.50;;;5.70;;
65871;SDS011;52653;50.080;21.992;2023-04-25T10:17:03;11.60;;;8.30;;
65871;SDS011;52653;50.080;21.992;2023-04-25T10:19:40;13.10;;;9.00;;
65871;SDS011;52653;50.080;21.992;2023-04-25T10:22:14;10.40;;;7.90;;
65871;SDS011;52653;50.080;21.992;2023-04-25T10:24:57;14.10;;;9.30;;
65871;SDS011;52653;50.080;21.992;2023-04-25T10:27:34;11.70;;;9.30;;
65871;SDS011;52653;50.080;21.992;2023-04-25T10:30:27;10.50;;;7.90;;
65871;SDS011;52653;50.080;21.992;2023-04-25T10:33:21;10.20;;;7.60;;
65871;SDS011;52653;50.080;21.992;2023-04-25T10:36:10;9.50;;;7.70;;
65871;SDS011;52653;50.080;21.992;2023-04-25T10:38:47;9.10;;;7.00;;
65871;SDS011;52653;50.080;21.992;2023-04-25T10:41:36;10.40;;;7.30;;
65871;SDS011;52653;50.080;21.992;2023-04-25T10:44:28;10.30;;;8.20;;
65871;SDS011;52653;50.080;21.992;2023-04-25T10:47:02;10.10;;;7.80;;
65871;SDS011;52653;50.080;21.992;2023-04-25T10:49:41;10.00;;;7.80;;
65871;SDS011;52653;50.080;21.992;2023-04-25T10:52:24;9.40;;;7.70;;
65871;SDS011;52653;50.080;21.992;2023-04-25T10:55:09;9.30;;;7.80;;
65871;SDS011;52653;50.080;21.992;2023-04-25T10:57:44;9.40;;;7.70;;
65871;SDS011;52653;50.080;21.992;2023-04-25T11:00:20;8.60;;;7.00;;
65871;SDS011;52653;50.080;21.992;2023-04-25T11:03:39;10.80;;;7.70;;
65871;SDS011;52653;50.080;21.992;2023-04-25T11:08:51;9.70;;;8.40;;
65871;SDS011;52653;50.080;21.992;2023-04-25T11:11:24;10.40;;;8.40;;
65871;SDS011;52653;50.080;21.992;2023-04-25T11:14:03;10.70;;;8.50;;
65871;SDS011;52653;50.080;21.992;2023-04-25T11:16:36;9.70;;;8.50;;
65871;SDS011;52653;50.080;21.992;2023-04-25T11:19:09;9.60;;;8.30;;
65871;SDS011;52653;50.080;21.992;2023-04-25T11:21:41;9.70;;;8.70;;
65871;SDS011;52653;50.080;21.992;2023-04-25T11:24:17;10.50;;;8.80;;
65871;SDS011;52653;50.080;21.992;2023-04-25T11:26:50;9.90;;;8.70;;
65871;SDS011;52653;50.080;21.992;2023-04-25T11:29:23;11.30;;;10.10;;
65871;SDS011;52653;50.080;21.992;2023-04-25T11:32:00;11.60;;;10.40;;
65871;SDS011;52653;50.080;21.992;2023-04-25T11:34:35;13.50;;;11.80;;
65871;SDS011;52653;50.080;21.992;2023-04-25T11:37:08;13.10;;;11.70;;
65871;SDS011;52653;50.080;21.992;2023-04-25T11:39:44;13.30;;;11.80;;
65871;SDS011;52653;50.080;21.992;2023-04-25T11:42:17;15.10;;;13.10;;
65871;SDS011;52653;50.080;21.992;2023-04-25T11:44:50;14.70;;;11.70;;
65871;SDS011;52653;50.080;21.992;2023-04-25T11:47:28;15.80;;;12.80;;
65871;SDS011;52653;50.080;21.992;2023-04-25T11:50:02;14.80;;;13.00;;
65871;SDS011;52653;50.080;21.992;2023-04-25T11:52:37;12.90;;;11.20;;
65871;SDS011;52653;50.080;21.992;2023-04-25T11:55:16;11.90;;;9.40;;
65871;SDS011;52653;50.080;21.992;2023-04-25T11:57:52;10.90;;;9.70;;
65871;SDS011;52653;50.080;21.992;2023-04-25T12:00:26;16.80;;;11.00;;
65871;SDS011;52653;50.080;21.992;2023-04-25T12:03:19;12.40;;;10.90;;
65871;SDS011;52653;50.080;21.992;2023-04-25T12:06:18;14.70;;;12.00;;
65871;SDS011;52653;50.080;21.992;2023-04-25T12:09:03;15.20;;;12.90;;
65871;SDS011;52653;50.080;21.992;2023-04-25T12:11:58;15.60;;;13.20;;
65871;SDS011;52653;50.080;21.992;2023-04-25T12:14:45;15.80;;;14.10;;
65871;SDS011;52653;50.080;21.992;2023-04-25T12:17:28;14.70;;;12.70;;
65871;SDS011;52653;50.080;21.992;2023-04-25T12:20:07;14.10;;;12.60;;
65871;SDS011;52653;50.080;21.992;2023-04-25T12:22:45;14.90;;;13.00;;
65871;SDS011;52653;50.080;21.992;2023-04-25T12:28:13;13.20;;;11.70;;
65871;SDS011;52653;50.080;21.992;2023-04-25T12:30:59;14.30;;;12.40;;
65871;SDS011;52653;50.080;21.992;2023-04-25T12:33:33;14.30;;;12.90;;
65871;SDS011;52653;50.080;21.992;2023-04-25T12:36:09;14.50;;;12.20;;
65871;SDS011;52653;50.080;21.992;2023-04-25T12:38:46;15.30;;;12.40;;
65871;SDS011;52653;50.080;21.992;2023-04-25T12:41:19;15.10;;;13.20;;
65871;SDS011;52653;50.080;21.992;2023-04-25T12:43:51;14.60;;;12.40;;
65871;SDS011;52653;50.080;21.992;2023-04-25T12:46:44;14.30;;;12.10;;
65871;SDS011;52653;50.080;21.992;2023-04-25T12:49:27;14.70;;;12.30;;
65871;SDS011;52653;50.080;21.992;2023-04-25T12:52:03;16.00;;;13.40;;
65871;SDS011;52653;50.080;21.992;2023-04-25T12:54:40;16.90;;;13.30;;
65871;SDS011;52653;50.080;21.992;2023-04-25T12:57:33;18.10;;;14.10;;
65871;SDS011;52653;50.080;21.992;2023-04-25T13:00:17;16.10;;;13.80;;
65871;SDS011;52653;50.080;21.992;2023-04-25T13:03:01;17.00;;;13.70;;
65871;SDS011;52653;50.080;21.992;2023-04-25T13:05:46;16.00;;;13.40;;
65871;SDS011;52653;50.080;21.992;2023-04-25T13:08:23;16.20;;;13.50;;
65871;SDS011;52653;50.080;21.992;2023-04-25T13:10:56;16.70;;;12.00;;
65871;SDS011;52653;50.080;21.992;2023-04-25T13:13:32;14.10;;;11.90;;
65871;SDS011;52653;50.080;21.992;2023-04-25T13:16:08;14.10;;;12.00;;
65871;SDS011;52653;50.080;21.992;2023-04-25T13:18:59;14.00;;;11.20;;
65871;SDS011;52653;50.080;21.992;2023-04-25T13:21:33;13.00;;;10.90;;
65871;SDS011;52653;50.080;21.992;2023-04-25T13:24:08;13.90;;;11.90;;
65871;SDS011;52653;50.080;21.992;2023-04-25T13:26:44;13.30;;;11.40;;
65871;SDS011;52653;50.080;21.992;2023-04-25T13:29:19;14.80;;;12.90;;
65871;SDS011;52653;50.080;21.992;2023-04-25T13:31:51;15.40;;;13.40;;
65871;SDS011;52653;50.080;21.992;2023-04-25T13:34:24;15.90;;;13.50;;
65871;SDS011;52653;50.080;21.992;2023-04-25T13:36:57;16.10;;;12.00;;
65871;SDS011;52653;50.080;21.992;2023-04-25T13:39:29;16.70;;;13.90;;
65871;SDS011;52653;50.080;21.992;2023-04-25T13:42:05;15.20;;;12.90;;
65871;SDS011;52653;50.080;21.992;2023-04-25T13:44:38;16.00;;;13.70;;
65871;SDS011;52653;50.080;21.992;2023-04-25T13:47:10;14.30;;;12.70;;
65871;SDS011;52653;50.080;21.992;2023-04-25T13:49:43;14.50;;;11.80;;
65871;SDS011;52653;50.080;21.992;2023-04-25T13:52:16;16.00;;;12.80;;
65871;SDS011;52653;50.080;21.992;2023-04-25T13:54:50;17.10;;;13.80;;
65871;SDS011;52653;50.080;21.992;2023-04-25T13:57:23;16.40;;;13.50;;
65871;SDS011;52653;50.080;21.992;2023-04-25T13:59:59;15.20;;;12.50;;
65871;SDS011;52653;50.080;21.992;2023-04-25T14:02:35;14.00;;;11.80;;
65871;SDS011;52653;50.080;21.992;2023-04-25T14:05:08;15.30;;;13.10;;
65871;SDS011;52653;50.080;21.992;2023-04-25T14:07:42;15.90;;;12.90;;
65871;SDS011;52653;50.080;21.992;2023-04-25T14:10:26;16.10;;;12.30;;
65871;SDS011;52653;50.080;21.992;2023-04-25T14:12:59;14.90;;;13.30;;
65871;SDS011;52653;50.080;21.992;2023-04-25T14:15:38;14.50;;;11.30;;
65871;SDS011;52653;50.080;21.992;2023-04-25T14:20:42;13.00;;;10.80;;
65871;SDS011;52653;50.080;21.992;2023-04-25T14:23:14;16.00;;;12.20;;
65871;SDS011;52653;50.080;21.992;2023-04-25T14:25:49;15.40;;;12.10;;
65871;SDS011;52653;50.080;21.992;2023-04-25T14:28:23;16.40;;;13.20;;
65871;SDS011;52653;50.080;21.992;2023-04-25T14:30:59;13.20;;;10.80;;
65871;SDS011;52653;50.080;21.992;2023-04-25T14:33:32;13.50;;;12.00;;
65871;SDS011;52653;50.080;21.992;2023-04-25T14:36:16;15.10;;;11.90;;
65871;SDS011;52653;50.080;21.992;2023-04-25T14:38:52;15.80;;;11.90;;
65871;SDS011;52653;50.080;21.992;2023-04-25T14:41:25;14.00;;;11.10;;
65871;SDS011;52653;50.080;21.992;2023-04-25T14:43:57;17.30;;;12.70;;
65871;SDS011;52653;50.080;21.992;2023-04-25T14:46:50;13.70;;;10.30;;
65871;SDS011;52653;50.080;21.992;2023-04-25T14:49:27;16.60;;;13.50;;
65871;SDS011;52653;50.080;21.992;2023-04-25T14:52:00;14.90;;;11.70;;
65871;SDS011;52653;50.080;21.992;2023-04-25T14:54:42;12.20;;;9.50;;
65871;SDS011;52653;50.080;21.992;2023-04-25T14:57:17;14.60;;;10.60;;
65871;SDS011;52653;50.080;21.992;2023-04-25T14:59:50;12.50;;;9.20;;
65871;SDS011;52653;50.080;21.992;2023-04-25T15:02:43;14.50;;;11.00;;
65871;SDS011;52653;50.080;21.992;2023-04-25T15:05:37;14.50;;;11.60;;
65871;SDS011;52653;50.080;21.992;2023-04-25T15:08:22;15.50;;;11.60;;
65871;SDS011;52653;50.080;21.992;2023-04-25T15:10:57;13.50;;;10.40;;
65871;SDS011;52653;50.080;21.992;2023-04-25T15:13:52;12.00;;;8.90;;
65871;SDS011;52653;50.080;21.992;2023-04-25T15:16:28;10.60;;;7.90;;
65871;SDS011;52653;50.080;21.992;2023-04-25T15:19:01;9.50;;;6.80;;
65871;SDS011;52653;50.080;21.992;2023-04-25T15:21:47;10.20;;;7.70;;
65871;SDS011;52653;50.080;21.992;2023-04-25T15:24:20;11.50;;;8.20;;
65871;SDS011;52653;50.080;21.992;2023-04-25T15:27:03;12.60;;;8.00;;
65871;SDS011;52653;50.080;21.992;2023-04-25T15:29:42;8.80;;;7.00;;
65871;SDS011;52653;50.080;21.992;2023-04-25T15:32:14;8.70;;;6.90;;
65871;SDS011;52653;50.080;21.992;2023-04-25T15:34:57;10.20;;;7.50;;
65871;SDS011;52653;50.080;21.992;2023-04-25T15:37:30;8.80;;;6.90;;
65871;SDS011;52653;50.080;21.992;2023-04-25T15:40:03;9.40;;;7.60;;
65871;SDS011;52653;50.080;21.992;2023-04-25T15:42:40;10.30;;;7.60;;
65871;SDS011;52653;50.080;21.992;2023-04-25T15:45:16;9.40;;;7.20;;
65871;SDS011;52653;50.080;21.992;2023-04-25T15:48:10;9.60;;;7.90;;
65871;SDS011;52653;50.080;21.992;2023-04-25T15:50:43;9.70;;;8.00;;
65871;SDS011;52653;50.080;21.992;2023-04-25T15:53:16;12.00;;;9.90;;
65871;SDS011;52653;50.080;21.992;2023-04-25T15:55:49;10.50;;;9.00;;